Terminal Aerodrome Forecast
Issued by NWS

Home | Current Version | Previous Version | Text Only | Print | Product List | Glossary Off
Versions: 1 2 3 4 5 6 7 8 9 10 11 12 13 14 15 16 17 18 19 20

000
FTUS43 KABR 240700 AAA
TAFPIR
TAF AMD
KPIR 240712Z 2407/2506 34016G28KT P6SM OVC025
     FM241000 32021G30KT P6SM SCT030
     FM242300 32010KT P6SM SKC=

USA.gov is the U.S. government's official web portal to all federal, state and local government web resources and services.